sensor_id;sensor_type;location;lat;lon;timestamp;P1;durP1;ratioP1;P2;durP2;ratioP2
3491;SDS011;1760;52.480;13.422;2023-10-31T00:02:07;10.57;;;4.40;;
3491;SDS011;1760;52.480;13.422;2023-10-31T00:04:34;4.80;;;3.60;;
3491;SDS011;1760;52.480;13.422;2023-10-31T00:07:03;8.53;;;4.43;;
3491;SDS011;1760;52.480;13.422;2023-10-31T00:09:30;5.13;;;3.90;;
3491;SDS011;1760;52.480;13.422;2023-10-31T00:11:57;5.40;;;3.80;;
3491;SDS011;1760;52.480;13.422;2023-10-31T00:14:24;8.53;;;4.37;;
3491;SDS011;1760;52.480;13.422;2023-10-31T00:16:54;7.10;;;4.77;;
3491;SDS011;1760;52.480;13.422;2023-10-31T00:19:21;6.43;;;4.90;;
3491;SDS011;1760;52.480;13.422;2023-10-31T00:21:48;7.70;;;4.40;;
3491;SDS011;1760;52.480;13.422;2023-10-31T00:24:16;11.73;;;5.10;;
3491;SDS011;1760;52.480;13.422;2023-10-31T00:26:43;9.40;;;5.80;;
3491;SDS011;1760;52.480;13.422;2023-10-31T00:29:10;7.50;;;5.20;;
3491;SDS011;1760;52.480;13.422;2023-10-31T00:31:36;6.17;;;4.70;;
3491;SDS011;1760;52.480;13.422;2023-10-31T00:34:06;6.23;;;4.50;;
3491;SDS011;1760;52.480;13.422;2023-10-31T00:36:33;8.53;;;4.03;;
3491;SDS011;1760;52.480;13.422;2023-10-31T00:39:00;9.30;;;5.70;;
3491;SDS011;1760;52.480;13.422;2023-10-31T00:41:28;15.40;;;4.57;;
3491;SDS011;1760;52.480;13.422;2023-10-31T00:43:55;7.60;;;4.43;;
3491;SDS011;1760;52.480;13.422;2023-10-31T00:46:22;7.67;;;4.23;;
3491;SDS011;1760;52.480;13.422;2023-10-31T00:48:49;5.03;;;3.57;;
3491;SDS011;1760;52.480;13.422;2023-10-31T00:51:15;5.90;;;4.10;;
3491;SDS011;1760;52.480;13.422;2023-10-31T00:53:42;7.87;;;4.33;;
3491;SDS011;1760;52.480;13.422;2023-10-31T00:56:09;5.90;;;4.20;;
3491;SDS011;1760;52.480;13.422;2023-10-31T00:58:38;4.83;;;3.93;;
3491;SDS011;1760;52.480;13.422;2023-10-31T01:01:05;8.60;;;4.33;;
3491;SDS011;1760;52.480;13.422;2023-10-31T01:03:32;6.47;;;4.40;;
3491;SDS011;1760;52.480;13.422;2023-10-31T01:06:01;6.37;;;3.90;;
3491;SDS011;1760;52.480;13.422;2023-10-31T01:08:27;11.97;;;4.63;;
3491;SDS011;1760;52.480;13.422;2023-10-31T01:10:54;6.87;;;4.40;;
3491;SDS011;1760;52.480;13.422;2023-10-31T01:13:23;6.23;;;4.90;;
3491;SDS011;1760;52.480;13.422;2023-10-31T01:15:52;6.50;;;4.40;;
3491;SDS011;1760;52.480;13.422;2023-10-31T01:18:18;5.67;;;3.73;;
3491;SDS011;1760;52.480;13.422;2023-10-31T01:20:46;9.30;;;4.53;;
3491;SDS011;1760;52.480;13.422;2023-10-31T01:23:13;6.43;;;4.60;;
3491;SDS011;1760;52.480;13.422;2023-10-31T01:25:40;8.30;;;5.27;;
3491;SDS011;1760;52.480;13.422;2023-10-31T01:28:06;7.70;;;5.57;;
3491;SDS011;1760;52.480;13.422;2023-10-31T01:30:33;5.80;;;4.70;;
3491;SDS011;1760;52.480;13.422;2023-10-31T01:33:02;10.73;;;4.83;;
3491;SDS011;1760;52.480;13.422;2023-10-31T01:35:29;5.90;;;4.90;;
3491;SDS011;1760;52.480;13.422;2023-10-31T01:37:56;8.00;;;3.87;;
3491;SDS011;1760;52.480;13.422;2023-10-31T01:40:23;7.03;;;4.83;;
3491;SDS011;1760;52.480;13.422;2023-10-31T01:42:50;10.13;;;5.80;;
3491;SDS011;1760;52.480;13.422;2023-10-31T01:45:17;8.10;;;5.40;;
3491;SDS011;1760;52.480;13.422;2023-10-31T01:47:44;11.20;;;5.47;;
3491;SDS011;1760;52.480;13.422;2023-10-31T01:50:15;5.97;;;5.10;;
3491;SDS011;1760;52.480;13.422;2023-10-31T01:52:44;8.73;;;5.00;;
3491;SDS011;1760;52.480;13.422;2023-10-31T01:55:11;9.47;;;6.30;;
3491;SDS011;1760;52.480;13.422;2023-10-31T01:57:39;8.63;;;4.73;;
3491;SDS011;1760;52.480;13.422;2023-10-31T02:00:07;10.80;;;4.40;;
3491;SDS011;1760;52.480;13.422;2023-10-31T02:02:34;6.63;;;5.90;;
3491;SDS011;1760;52.480;13.422;2023-10-31T02:05:04;8.27;;;5.00;;
3491;SDS011;1760;52.480;13.422;2023-10-31T02:07:33;7.07;;;4.70;;
3491;SDS011;1760;52.480;13.422;2023-10-31T02:09:59;10.83;;;4.10;;
3491;SDS011;1760;52.480;13.422;2023-10-31T02:12:33;7.93;;;4.60;;
3491;SDS011;1760;52.480;13.422;2023-10-31T02:15:01;8.23;;;5.37;;
3491;SDS011;1760;52.480;13.422;2023-10-31T02:17:28;8.73;;;5.37;;
3491;SDS011;1760;52.480;13.422;2023-10-31T02:19:56;8.60;;;6.33;;
3491;SDS011;1760;52.480;13.422;2023-10-31T02:22:24;5.40;;;4.40;;
3491;SDS011;1760;52.480;13.422;2023-10-31T02:24:51;8.60;;;5.10;;
3491;SDS011;1760;52.480;13.422;2023-10-31T02:27:18;15.33;;;5.10;;
3491;SDS011;1760;52.480;13.422;2023-10-31T02:29:45;8.73;;;6.00;;
3491;SDS011;1760;52.480;13.422;2023-10-31T02:32:11;8.43;;;5.93;;
3491;SDS011;1760;52.480;13.422;2023-10-31T02:34:38;10.43;;;5.40;;
3491;SDS011;1760;52.480;13.422;2023-10-31T02:37:05;9.23;;;5.70;;
3491;SDS011;1760;52.480;13.422;2023-10-31T02:39:34;9.90;;;6.13;;
3491;SDS011;1760;52.480;13.422;2023-10-31T02:42:02;10.40;;;5.20;;
3491;SDS011;1760;52.480;13.422;2023-10-31T02:44:29;9.13;;;5.60;;
3491;SDS011;1760;52.480;13.422;2023-10-31T02:46:56;8.13;;;6.10;;
3491;SDS011;1760;52.480;13.422;2023-10-31T02:49:23;15.03;;;5.90;;
3491;SDS011;1760;52.480;13.422;2023-10-31T02:51:50;13.93;;;6.43;;
3491;SDS011;1760;52.480;13.422;2023-10-31T02:54:17;10.60;;;5.50;;
3491;SDS011;1760;52.480;13.422;2023-10-31T02:56:45;11.70;;;4.87;;
3491;SDS011;1760;52.480;13.422;2023-10-31T02:59:12;10.50;;;5.70;;
3491;SDS011;1760;52.480;13.422;2023-10-31T03:01:41;8.13;;;5.33;;
3491;SDS011;1760;52.480;13.422;2023-10-31T03:04:07;10.03;;;5.47;;
3491;SDS011;1760;52.480;13.422;2023-10-31T03:06:36;12.23;;;5.30;;
3491;SDS011;1760;52.480;13.422;2023-10-31T03:09:03;7.17;;;4.90;;
3491;SDS011;1760;52.480;13.422;2023-10-31T03:11:30;8.13;;;5.77;;
3491;SDS011;1760;52.480;13.422;2023-10-31T03:13:58;12.23;;;6.30;;
3491;SDS011;1760;52.480;13.422;2023-10-31T03:16:25;10.03;;;5.23;;
3491;SDS011;1760;52.480;13.422;2023-10-31T03:18:52;6.43;;;5.27;;
3491;SDS011;1760;52.480;13.422;2023-10-31T03:21:19;8.43;;;5.10;;
3491;SDS011;1760;52.480;13.422;2023-10-31T03:23:47;14.07;;;6.27;;
3491;SDS011;1760;52.480;13.422;2023-10-31T03:26:15;9.53;;;5.47;;
3491;SDS011;1760;52.480;13.422;2023-10-31T03:28:42;10.00;;;6.47;;
3491;SDS011;1760;52.480;13.422;2023-10-31T03:31:10;8.30;;;6.20;;
3491;SDS011;1760;52.480;13.422;2023-10-31T03:33:38;7.30;;;5.80;;
3491;SDS011;1760;52.480;13.422;2023-10-31T03:36:06;8.40;;;6.60;;
3491;SDS011;1760;52.480;13.422;2023-10-31T03:38:33;10.00;;;7.00;;
3491;SDS011;1760;52.480;13.422;2023-10-31T03:41:00;11.20;;;6.53;;
3491;SDS011;1760;52.480;13.422;2023-10-31T03:43:27;10.27;;;6.90;;
3491;SDS011;1760;52.480;13.422;2023-10-31T03:45:59;10.17;;;7.00;;
3491;SDS011;1760;52.480;13.422;2023-10-31T03:48:27;8.23;;;5.73;;
3491;SDS011;1760;52.480;13.422;2023-10-31T03:50:54;8.53;;;6.43;;
3491;SDS011;1760;52.480;13.422;2023-10-31T03:53:21;6.10;;;5.10;;
3491;SDS011;1760;52.480;13.422;2023-10-31T03:55:48;8.93;;;6.10;;
3491;SDS011;1760;52.480;13.422;2023-10-31T03:58:15;7.93;;;6.27;;
3491;SDS011;1760;52.480;13.422;2023-10-31T04:00:42;7.80;;;5.73;;
3491;SDS011;1760;52.480;13.422;2023-10-31T04:03:08;6.33;;;5.70;;
3491;SDS011;1760;52.480;13.422;2023-10-31T04:05:37;7.30;;;5.97;;
3491;SDS011;1760;52.480;13.422;2023-10-31T04:08:04;10.00;;;5.50;;
3491;SDS011;1760;52.480;13.422;2023-10-31T04:10:31;7.20;;;5.40;;
3491;SDS011;1760;52.480;13.422;2023-10-31T04:12:57;10.17;;;4.87;;
3491;SDS011;1760;52.480;13.422;2023-10-31T04:15:24;7.67;;;5.93;;
3491;SDS011;1760;52.480;13.422;2023-10-31T04:17:51;6.17;;;4.70;;
3491;SDS011;1760;52.480;13.422;2023-10-31T04:20:18;7.00;;;5.00;;
3491;SDS011;1760;52.480;13.422;2023-10-31T04:22:49;13.60;;;6.57;;
3491;SDS011;1760;52.480;13.422;2023-10-31T04:25:16;7.50;;;5.67;;
3491;SDS011;1760;52.480;13.422;2023-10-31T04:27:43;6.63;;;5.17;;
3491;SDS011;1760;52.480;13.422;2023-10-31T04:30:10;6.17;;;5.40;;
3491;SDS011;1760;52.480;13.422;2023-10-31T04:32:37;7.90;;;5.13;;
3491;SDS011;1760;52.480;13.422;2023-10-31T04:35:04;6.83;;;6.13;;
3491;SDS011;1760;52.480;13.422;2023-10-31T04:37:32;9.70;;;6.07;;
3491;SDS011;1760;52.480;13.422;2023-10-31T04:40:00;7.73;;;5.80;;
3491;SDS011;1760;52.480;13.422;2023-10-31T04:42:28;8.90;;;6.33;;
3491;SDS011;1760;52.480;13.422;2023-10-31T04:44:54;7.10;;;6.40;;
3491;SDS011;1760;52.480;13.422;2023-10-31T04:47:21;7.53;;;5.60;;
3491;SDS011;1760;52.480;13.422;2023-10-31T04:49:48;7.23;;;5.50;;
3491;SDS011;1760;52.480;13.422;2023-10-31T04:52:15;17.93;;;6.50;;
3491;SDS011;1760;52.480;13.422;2023-10-31T04:54:47;8.07;;;6.27;;
3491;SDS011;1760;52.480;13.422;2023-10-31T04:57:16;9.27;;;6.70;;
3491;SDS011;1760;52.480;13.422;2023-10-31T04:59:42;7.67;;;5.60;;
3491;SDS011;1760;52.480;13.422;2023-10-31T05:02:13;6.97;;;5.70;;
3491;SDS011;1760;52.480;13.422;2023-10-31T05:04:39;14.63;;;6.50;;
3491;SDS011;1760;52.480;13.422;2023-10-31T05:07:07;8.53;;;6.17;;
3491;SDS011;1760;52.480;13.422;2023-10-31T05:09:34;8.50;;;6.90;;
3491;SDS011;1760;52.480;13.422;2023-10-31T05:12:00;10.00;;;6.27;;
3491;SDS011;1760;52.480;13.422;2023-10-31T05:14:29;8.90;;;6.60;;
3491;SDS011;1760;52.480;13.422;2023-10-31T05:16:56;8.33;;;6.53;;
3491;SDS011;1760;52.480;13.422;2023-10-31T05:19:22;9.60;;;6.53;;
3491;SDS011;1760;52.480;13.422;2023-10-31T05:21:49;10.73;;;6.77;;
3491;SDS011;1760;52.480;13.422;2023-10-31T05:24:16;12.20;;;8.20;;
3491;SDS011;1760;52.480;13.422;2023-10-31T05:26:43;9.60;;;6.80;;
3491;SDS011;1760;52.480;13.422;2023-10-31T05:29:10;8.23;;;6.23;;
3491;SDS011;1760;52.480;13.422;2023-10-31T05:31:41;10.13;;;6.47;;
3491;SDS011;1760;52.480;13.422;2023-10-31T05:34:10;9.37;;;6.83;;
3491;SDS011;1760;52.480;13.422;2023-10-31T05:36:38;8.17;;;6.53;;
3491;SDS011;1760;52.480;13.422;2023-10-31T05:39:05;9.30;;;6.23;;
3491;SDS011;1760;52.480;13.422;2023-10-31T05:41:34;11.00;;;6.70;;
3491;SDS011;1760;52.480;13.422;2023-10-31T05:44:01;9.27;;;6.90;;
3491;SDS011;1760;52.480;13.422;2023-10-31T05:46:28;8.40;;;6.83;;
3491;SDS011;1760;52.480;13.422;2023-10-31T05:48:56;10.77;;;7.30;;
3491;SDS011;1760;52.480;13.422;2023-10-31T05:51:23;7.93;;;6.30;;
3491;SDS011;1760;52.480;13.422;2023-10-31T05:53:51;11.97;;;6.20;;
3491;SDS011;1760;52.480;13.422;2023-10-31T05:56:18;7.60;;;6.20;;
3491;SDS011;1760;52.480;13.422;2023-10-31T05:58:45;7.27;;;5.13;;
3491;SDS011;1760;52.480;13.422;2023-10-31T06:01:15;5.13;;;4.63;;
3491;SDS011;1760;52.480;13.422;2023-10-31T06:03:44;7.90;;;5.37;;
3491;SDS011;1760;52.480;13.422;2023-10-31T06:06:12;5.43;;;4.10;;
3491;SDS011;1760;52.480;13.422;2023-10-31T06:08:40;6.10;;;5.23;;
3491;SDS011;1760;52.480;13.422;2023-10-31T06:11:07;5.70;;;4.30;;
3491;SDS011;1760;52.480;13.422;2023-10-31T06:13:37;4.73;;;4.10;;
3491;SDS011;1760;52.480;13.422;2023-10-31T06:16:04;8.00;;;5.70;;
3491;SDS011;1760;52.480;13.422;2023-10-31T06:18:32;7.70;;;4.77;;
3491;SDS011;1760;52.480;13.422;2023-10-31T06:20:59;6.30;;;5.20;;
3491;SDS011;1760;52.480;13.422;2023-10-31T06:23:27;6.60;;;5.30;;
3491;SDS011;1760;52.480;13.422;2023-10-31T06:25:54;7.90;;;5.30;;
3491;SDS011;1760;52.480;13.422;2023-10-31T06:28:22;5.77;;;4.97;;
3491;SDS011;1760;52.480;13.422;2023-10-31T06:30:49;7.97;;;4.67;;
3491;SDS011;1760;52.480;13.422;2023-10-31T06:33:16;5.03;;;4.23;;
3491;SDS011;1760;52.480;13.422;2023-10-31T06:35:43;9.00;;;5.03;;
3491;SDS011;1760;52.480;13.422;2023-10-31T06:38:10;5.30;;;4.47;;
3491;SDS011;1760;52.480;13.422;2023-10-31T06:40:39;5.40;;;4.77;;
3491;SDS011;1760;52.480;13.422;2023-10-31T06:43:06;8.13;;;4.60;;
3491;SDS011;1760;52.480;13.422;2023-10-31T06:45:33;6.27;;;4.83;;
3491;SDS011;1760;52.480;13.422;2023-10-31T06:48:00;4.83;;;4.20;;
3491;SDS011;1760;52.480;13.422;2023-10-31T06:50:26;7.50;;;5.10;;
3491;SDS011;1760;52.480;13.422;2023-10-31T06:52:53;4.63;;;4.00;;
3491;SDS011;1760;52.480;13.422;2023-10-31T06:55:20;5.80;;;4.67;;
3491;SDS011;1760;52.480;13.422;2023-10-31T06:57:49;5.10;;;4.40;;
3491;SDS011;1760;52.480;13.422;2023-10-31T07:00:16;5.33;;;4.70;;
3491;SDS011;1760;52.480;13.422;2023-10-31T07:02:43;6.10;;;4.60;;
3491;SDS011;1760;52.480;13.422;2023-10-31T07:05:12;4.30;;;3.90;;
3491;SDS011;1760;52.480;13.422;2023-10-31T07:07:40;4.90;;;3.33;;
3491;SDS011;1760;52.480;13.422;2023-10-31T07:10:07;4.50;;;3.20;;
3491;SDS011;1760;52.480;13.422;2023-10-31T07:12:34;5.03;;;3.83;;
3491;SDS011;1760;52.480;13.422;2023-10-31T07:15:03;4.80;;;3.07;;
3491;SDS011;1760;52.480;13.422;2023-10-31T07:17:32;3.40;;;3.10;;
3491;SDS011;1760;52.480;13.422;2023-10-31T07:19:59;3.77;;;2.90;;
3491;SDS011;1760;52.480;13.422;2023-10-31T07:22:26;4.27;;;3.47;;
3491;SDS011;1760;52.480;13.422;2023-10-31T07:24:53;3.90;;;3.47;;
3491;SDS011;1760;52.480;13.422;2023-10-31T07:27:20;3.80;;;2.87;;
3491;SDS011;1760;52.480;13.422;2023-10-31T07:29:46;3.73;;;2.77;;
3491;SDS011;1760;52.480;13.422;2023-10-31T07:32:16;3.47;;;2.70;;
3491;SDS011;1760;52.480;13.422;2023-10-31T07:34:44;4.93;;;2.53;;
3491;SDS011;1760;52.480;13.422;2023-10-31T07:37:11;3.27;;;2.70;;
3491;SDS011;1760;52.480;13.422;2023-10-31T07:39:38;2.27;;;1.60;;
3491;SDS011;1760;52.480;13.422;2023-10-31T07:42:05;2.73;;;2.10;;
3491;SDS011;1760;52.480;13.422;2023-10-31T07:44:32;2.40;;;2.20;;
3491;SDS011;1760;52.480;13.422;2023-10-31T07:46:59;1.90;;;1.70;;
3491;SDS011;1760;52.480;13.422;2023-10-31T07:49:28;3.50;;;2.17;;
3491;SDS011;1760;52.480;13.422;2023-10-31T07:51:55;3.47;;;2.70;;
3491;SDS011;1760;52.480;13.422;2023-10-31T07:54:22;2.13;;;1.33;;
3491;SDS011;1760;52.480;13.422;2023-10-31T07:56:49;1.47;;;1.37;;
3491;SDS011;1760;52.480;13.422;2023-10-31T07:59:16;1.93;;;1.20;;
3491;SDS011;1760;52.480;13.422;2023-10-31T08:01:43;1.60;;;1.50;;
3491;SDS011;1760;52.480;13.422;2023-10-31T08:04:10;1.30;;;1.10;;
3491;SDS011;1760;52.480;13.422;2023-10-31T08:06:38;1.57;;;1.47;;
3491;SDS011;1760;52.480;13.422;2023-10-31T08:09:05;1.17;;;1.07;;
3491;SDS011;1760;52.480;13.422;2023-10-31T08:11:32;1.97;;;1.53;;
3491;SDS011;1760;52.480;13.422;2023-10-31T08:14:00;1.40;;;1.30;;
3491;SDS011;1760;52.480;13.422;2023-10-31T08:16:30;2.47;;;1.10;;
3491;SDS011;1760;52.480;13.422;2023-10-31T08:18:57;1.23;;;1.13;;
3491;SDS011;1760;52.480;13.422;2023-10-31T08:21:24;3.70;;;1.43;;
3491;SDS011;1760;52.480;13.422;2023-10-31T08:23:54;1.97;;;1.83;;
3491;SDS011;1760;52.480;13.422;2023-10-31T08:26:21;1.33;;;1.20;;
3491;SDS011;1760;52.480;13.422;2023-10-31T08:28:48;1.20;;;0.90;;
3491;SDS011;1760;52.480;13.422;2023-10-31T08:31:17;1.63;;;1.27;;
3491;SDS011;1760;52.480;13.422;2023-10-31T08:33:45;1.20;;;1.10;;
3491;SDS011;1760;52.480;13.422;2023-10-31T08:36:12;1.50;;;1.10;;
3491;SDS011;1760;52.480;13.422;2023-10-31T08:38:39;1.30;;;1.10;;
3491;SDS011;1760;52.480;13.422;2023-10-31T08:41:08;3.77;;;1.60;;
3491;SDS011;1760;52.480;13.422;2023-10-31T08:43:34;2.00;;;1.23;;
3491;SDS011;1760;52.480;13.422;2023-10-31T08:46:01;2.07;;;1.37;;
3491;SDS011;1760;52.480;13.422;2023-10-31T08:48:29;1.67;;;1.00;;
3491;SDS011;1760;52.480;13.422;2023-10-31T08:50:56;1.73;;;1.10;;
3491;SDS011;1760;52.480;13.422;2023-10-31T08:53:23;1.30;;;0.90;;
3491;SDS011;1760;52.480;13.422;2023-10-31T08:55:49;1.03;;;0.83;;
3491;SDS011;1760;52.480;13.422;2023-10-31T08:58:18;2.57;;;1.10;;
3491;SDS011;1760;52.480;13.422;2023-10-31T09:00:45;1.10;;;0.80;;
3491;SDS011;1760;52.480;13.422;2023-10-31T09:03:12;1.27;;;0.90;;
3491;SDS011;1760;52.480;13.422;2023-10-31T09:05:39;1.93;;;0.90;;
3491;SDS011;1760;52.480;13.422;2023-10-31T09:08:07;1.50;;;1.20;;
3491;SDS011;1760;52.480;13.422;2023-10-31T09:10:35;1.40;;;0.83;;
3491;SDS011;1760;52.480;13.422;2023-10-31T09:13:05;4.20;;;1.37;;
3491;SDS011;1760;52.480;13.422;2023-10-31T09:15:33;1.47;;;0.80;;
3491;SDS011;1760;52.480;13.422;2023-10-31T09:18:01;1.10;;;0.80;;
3491;SDS011;1760;52.480;13.422;2023-10-31T09:20:28;1.00;;;0.80;;
3491;SDS011;1760;52.480;13.422;2023-10-31T09:22:55;1.10;;;0.87;;
3491;SDS011;1760;52.480;13.422;2023-10-31T09:25:22;1.10;;;0.97;;
3491;SDS011;1760;52.480;13.422;2023-10-31T09:27:58;1.70;;;0.90;;
3491;SDS011;1760;52.480;13.422;2023-10-31T09:30:25;1.67;;;1.17;;
3491;SDS011;1760;52.480;13.422;2023-10-31T09:32:53;1.87;;;1.03;;
3491;SDS011;1760;52.480;13.422;2023-10-31T09:35:20;1.23;;;0.80;;
3491;SDS011;1760;52.480;13.422;2023-10-31T09:37:47;1.20;;;0.90;;
3491;SDS011;1760;52.480;13.422;2023-10-31T09:40:14;1.17;;;0.80;;
3491;SDS011;1760;52.480;13.422;2023-10-31T09:42:42;1.43;;;1.10;;
3491;SDS011;1760;52.480;13.422;2023-10-31T09:45:10;1.50;;;1.20;;
3491;SDS011;1760;52.480;13.422;2023-10-31T09:47:38;1.20;;;1.10;;
3491;SDS011;1760;52.480;13.422;2023-10-31T09:50:07;1.10;;;0.90;;
3491;SDS011;1760;52.480;13.422;2023-10-31T09:52:35;1.20;;;1.03;;
3491;SDS011;1760;52.480;13.422;2023-10-31T09:55:03;4.60;;;1.37;;
3491;SDS011;1760;52.480;13.422;2023-10-31T09:57:31;1.20;;;1.10;;
3491;SDS011;1760;52.480;13.422;2023-10-31T09:59:59;1.20;;;1.10;;
3491;SDS011;1760;52.480;13.422;2023-10-31T10:02:28;3.93;;;1.50;;
3491;SDS011;1760;52.480;13.422;2023-10-31T10:04:55;1.10;;;1.00;;
3491;SDS011;1760;52.480;13.422;2023-10-31T10:07:24;1.47;;;1.17;;
3491;SDS011;1760;52.480;13.422;2023-10-31T10:09:51;1.63;;;1.30;;
3491;SDS011;1760;52.480;13.422;2023-10-31T10:12:18;1.20;;;1.00;;
3491;SDS011;1760;52.480;13.422;2023-10-31T10:14:45;1.40;;;1.13;;
3491;SDS011;1760;52.480;13.422;2023-10-31T10:17:15;1.60;;;1.10;;
3491;SDS011;1760;52.480;13.422;2023-10-31T10:19:43;1.30;;;1.13;;
3491;SDS011;1760;52.480;13.422;2023-10-31T10:22:10;1.40;;;1.17;;
3491;SDS011;1760;52.480;13.422;2023-10-31T10:24:41;1.70;;;1.20;;
3491;SDS011;1760;52.480;13.422;2023-10-31T10:27:08;5.20;;;1.43;;
3491;SDS011;1760;52.480;13.422;2023-10-31T10:29:34;1.97;;;1.33;;
3491;SDS011;1760;52.480;13.422;2023-10-31T10:32:01;2.27;;;1.30;;
3491;SDS011;1760;52.480;13.422;2023-10-31T10:34:33;1.30;;;1.17;;
3491;SDS011;1760;52.480;13.422;2023-10-31T10:37:01;1.67;;;1.10;;
3491;SDS011;1760;52.480;13.422;2023-10-31T10:39:31;1.70;;;1.13;;
3491;SDS011;1760;52.480;13.422;2023-10-31T10:42:06;3.20;;;1.60;;
3491;SDS011;1760;52.480;13.422;2023-10-31T10:44:37;4.10;;;1.40;;
3491;SDS011;1760;52.480;13.422;2023-10-31T10:47:13;1.67;;;1.33;;
3491;SDS011;1760;52.480;13.422;2023-10-31T10:49:41;4.33;;;1.60;;
3491;SDS011;1760;52.480;13.422;2023-10-31T10:52:14;1.30;;;1.13;;
3491;SDS011;1760;52.480;13.422;2023-10-31T10:54:45;1.67;;;1.27;;
3491;SDS011;1760;52.480;13.422;2023-10-31T10:57:23;2.40;;;1.42;;
3491;SDS011;1760;52.480;13.422;2023-10-31T10:59:58;1.67;;;1.57;;
3491;SDS011;1760;52.480;13.422;2023-10-31T11:02:29;1.73;;;1.33;;
3491;SDS011;1760;52.480;13.422;2023-10-31T11:04:58;6.13;;;1.87;;
3491;SDS011;1760;52.480;13.422;2023-10-31T11:07:26;1.83;;;1.70;;
3491;SDS011;1760;52.480;13.422;2023-10-31T11:09:57;1.50;;;1.40;;
3491;SDS011;1760;52.480;13.422;2023-10-31T11:12:29;2.20;;;1.93;;
3491;SDS011;1760;52.480;13.422;2023-10-31T11:14:56;2.20;;;1.90;;
3491;SDS011;1760;52.480;13.422;2023-10-31T11:17:24;4.93;;;3.13;;
3491;SDS011;1760;52.480;13.422;2023-10-31T11:19:54;3.20;;;1.57;;
3491;SDS011;1760;52.480;13.422;2023-10-31T11:22:22;2.60;;;2.17;;
3491;SDS011;1760;52.480;13.422;2023-10-31T11:24:49;2.97;;;1.63;;
3491;SDS011;1760;52.480;13.422;2023-10-31T11:27:17;2.03;;;1.87;;
3491;SDS011;1760;52.480;13.422;2023-10-31T11:29:46;2.87;;;1.90;;
3491;SDS011;1760;52.480;13.422;2023-10-31T11:32:14;1.70;;;1.53;;
3491;SDS011;1760;52.480;13.422;2023-10-31T11:34:42;1.27;;;1.17;;
3491;SDS011;1760;52.480;13.422;2023-10-31T11:37:19;3.00;;;1.80;;
3491;SDS011;1760;52.480;13.422;2023-10-31T11:42:43;1.70;;;1.50;;
3491;SDS011;1760;52.480;13.422;2023-10-31T11:45:14;1.83;;;1.30;;
3491;SDS011;1760;52.480;13.422;2023-10-31T11:47:54;1.80;;;1.23;;
3491;SDS011;1760;52.480;13.422;2023-10-31T11:50:22;1.77;;;1.50;;
3491;SDS011;1760;52.480;13.422;2023-10-31T11:52:59;1.77;;;1.50;;
3491;SDS011;1760;52.480;13.422;2023-10-31T11:55:31;2.50;;;1.37;;
3491;SDS011;1760;52.480;13.422;2023-10-31T11:58:12;1.50;;;1.30;;
3491;SDS011;1760;52.480;13.422;2023-10-31T12:00:44;1.90;;;1.40;;
3491;SDS011;1760;52.480;13.422;2023-10-31T12:03:12;1.80;;;1.23;;
3491;SDS011;1760;52.480;13.422;2023-10-31T12:05:50;3.27;;;1.70;;
3491;SDS011;1760;52.480;13.422;2023-10-31T12:08:23;3.93;;;1.37;;
3491;SDS011;1760;52.480;13.422;2023-10-31T12:10:52;2.80;;;1.30;;
3491;SDS011;1760;52.480;13.422;2023-10-31T12:13:19;1.40;;;1.10;;
3491;SDS011;1760;52.480;13.422;2023-10-31T12:15:53;1.77;;;1.13;;
3491;SDS011;1760;52.480;13.422;2023-10-31T12:18:20;6.53;;;1.43;;
3491;SDS011;1760;52.480;13.422;2023-10-31T12:20:47;1.37;;;1.10;;
3491;SDS011;1760;52.480;13.422;2023-10-31T12:23:15;1.10;;;0.90;;
3491;SDS011;1760;52.480;13.422;2023-10-31T12:25:47;1.20;;;1.00;;
3491;SDS011;1760;52.480;13.422;2023-10-31T12:28:17;1.30;;;0.93;;
3491;SDS011;1760;52.480;13.422;2023-10-31T12:30:45;1.67;;;1.00;;
3491;SDS011;1760;52.480;13.422;2023-10-31T12:33:14;1.20;;;1.00;;
3491;SDS011;1760;52.480;13.422;2023-10-31T12:35:42;2.40;;;1.00;;
3491;SDS011;1760;52.480;13.422;2023-10-31T12:38:10;1.00;;;0.80;;
3491;SDS011;1760;52.480;13.422;2023-10-31T12:40:38;1.20;;;1.00;;
3491;SDS011;1760;52.480;13.422;2023-10-31T12:43:06;1.10;;;0.77;;
3491;SDS011;1760;52.480;13.422;2023-10-31T12:45:35;1.43;;;1.30;;
3491;SDS011;1760;52.480;13.422;2023-10-31T12:48:02;1.00;;;0.80;;
3491;SDS011;1760;52.480;13.422;2023-10-31T12:50:32;1.23;;;1.00;;
3491;SDS011;1760;52.480;13.422;2023-10-31T12:53:03;1.17;;;0.80;;
3491;SDS011;1760;52.480;13.422;2023-10-31T12:55:31;1.87;;;1.20;;
3491;SDS011;1760;52.480;13.422;2023-10-31T12:58:04;0.90;;;0.70;;
3491;SDS011;1760;52.480;13.422;2023-10-31T13:00:32;1.10;;;0.90;;
3491;SDS011;1760;52.480;13.422;2023-10-31T13:03:04;3.43;;;1.80;;
3491;SDS011;1760;52.480;13.422;2023-10-31T13:05:36;2.10;;;1.77;;
3491;SDS011;1760;52.480;13.422;2023-10-31T13:08:10;1.47;;;0.93;;
3491;SDS011;1760;52.480;13.422;2023-10-31T13:10:40;0.90;;;0.67;;
3491;SDS011;1760;52.480;13.422;2023-10-31T13:13:08;1.37;;;0.80;;
3491;SDS011;1760;52.480;13.422;2023-10-31T13:15:37;1.97;;;1.07;;
3491;SDS011;1760;52.480;13.422;2023-10-31T13:18:04;1.17;;;0.83;;
3491;SDS011;1760;52.480;13.422;2023-10-31T13:20:32;1.60;;;1.00;;
3491;SDS011;1760;52.480;13.422;2023-10-31T13:23:02;1.20;;;1.00;;
3491;SDS011;1760;52.480;13.422;2023-10-31T13:25:32;1.43;;;1.00;;
3491;SDS011;1760;52.480;13.422;2023-10-31T13:27:59;1.00;;;0.90;;
3491;SDS011;1760;52.480;13.422;2023-10-31T13:30:26;3.10;;;1.10;;
3491;SDS011;1760;52.480;13.422;2023-10-31T13:32:53;1.83;;;0.90;;
3491;SDS011;1760;52.480;13.422;2023-10-31T13:35:22;1.40;;;1.10;;
3491;SDS011;1760;52.480;13.422;2023-10-31T13:37:53;1.40;;;0.80;;
3491;SDS011;1760;52.480;13.422;2023-10-31T13:40:23;1.00;;;0.80;;
3491;SDS011;1760;52.480;13.422;2023-10-31T13:42:50;1.30;;;1.00;;
3491;SDS011;1760;52.480;13.422;2023-10-31T13:45:20;1.10;;;0.80;;
3491;SDS011;1760;52.480;13.422;2023-10-31T13:47:47;1.00;;;0.90;;
3491;SDS011;1760;52.480;13.422;2023-10-31T13:50:14;1.50;;;1.40;;
3491;SDS011;1760;52.480;13.422;2023-10-31T13:52:43;3.10;;;0.87;;
3491;SDS011;1760;52.480;13.422;2023-10-31T13:55:10;1.13;;;0.93;;
3491;SDS011;1760;52.480;13.422;2023-10-31T13:57:38;0.90;;;0.70;;
3491;SDS011;1760;52.480;13.422;2023-10-31T14:00:06;2.07;;;0.80;;
3491;SDS011;1760;52.480;13.422;2023-10-31T14:02:34;1.40;;;0.90;;
3491;SDS011;1760;52.480;13.422;2023-10-31T14:05:04;0.90;;;0.70;;
3491;SDS011;1760;52.480;13.422;2023-10-31T14:07:32;2.47;;;0.80;;
3491;SDS011;1760;52.480;13.422;2023-10-31T14:10:00;1.10;;;0.90;;
3491;SDS011;1760;52.480;13.422;2023-10-31T14:12:27;1.10;;;0.80;;
3491;SDS011;1760;52.480;13.422;2023-10-31T14:14:55;1.40;;;0.83;;
3491;SDS011;1760;52.480;13.422;2023-10-31T14:17:22;1.70;;;1.00;;
3491;SDS011;1760;52.480;13.422;2023-10-31T14:19:49;2.43;;;1.00;;
3491;SDS011;1760;52.480;13.422;2023-10-31T14:22:16;1.20;;;0.80;;
3491;SDS011;1760;52.480;13.422;2023-10-31T14:24:43;1.30;;;0.80;;
3491;SDS011;1760;52.480;13.422;2023-10-31T14:27:11;1.10;;;0.77;;
3491;SDS011;1760;52.480;13.422;2023-10-31T14:29:38;1.40;;;1.00;;
3491;SDS011;1760;52.480;13.422;2023-10-31T14:32:07;1.10;;;0.80;;
3491;SDS011;1760;52.480;13.422;2023-10-31T14:34:35;4.00;;;1.10;;
3491;SDS011;1760;52.480;13.422;2023-10-31T14:37:02;1.10;;;0.80;;
3491;SDS011;1760;52.480;13.422;2023-10-31T14:39:31;1.50;;;1.00;;
3491;SDS011;1760;52.480;13.422;2023-10-31T14:41:57;1.10;;;1.00;;
3491;SDS011;1760;52.480;13.422;2023-10-31T14:44:25;1.40;;;1.03;;
3491;SDS011;1760;52.480;13.422;2023-10-31T14:46:52;1.40;;;1.30;;
3491;SDS011;1760;52.480;13.422;2023-10-31T14:49:21;1.20;;;0.80;;
3491;SDS011;1760;52.480;13.422;2023-10-31T14:51:47;1.67;;;0.90;;
3491;SDS011;1760;52.480;13.422;2023-10-31T14:54:14;1.13;;;0.87;;
3491;SDS011;1760;52.480;13.422;2023-10-31T14:56:41;1.10;;;1.00;;
3491;SDS011;1760;52.480;13.422;2023-10-31T14:59:08;2.17;;;0.90;;
3491;SDS011;1760;52.480;13.422;2023-10-31T15:01:40;1.93;;;1.57;;
3491;SDS011;1760;52.480;13.422;2023-10-31T15:04:07;1.23;;;1.00;;
3491;SDS011;1760;52.480;13.422;2023-10-31T15:06:37;0.97;;;0.80;;
3491;SDS011;1760;52.480;13.422;2023-10-31T15:09:04;1.53;;;1.10;;